Time;durP1;ratioP1;P1;durP2;ratioP2;P2;SDS_P1;SDS_P2;PMS_P1;PMS_P2;Temp;Humidity;BMP_temperature;BMP_pressure;BME280_temperature;BME280_humidity;BME280_pressure;Samples;Min_cycle;Max_cycle;Signal;HPM_P1;HPM_P2
2022/09/16 00:00:43;;;;;;;2.00;0.50;;;21.10;66.80;;;;;;5051842;28;20139;-69
2022/09/16 00:03:10;;;;;;;2.92;0.55;;;21.00;66.70;;;;;;5050654;28;20040;-69
2022/09/16 00:05:42;;;;;;;2.28;0.45;;;21.10;67.10;;;;;;5033996;28;20508;-69
2022/09/16 00:08:08;;;;;;;1.88;0.47;;;21.10;66.70;;;;;;5051942;28;20041;-69
2022/09/16 00:10:34;;;;;;;1.65;0.95;;;21.10;66.70;;;;;;5051271;28;20123;-69
2022/09/16 00:13:00;;;;;;;2.17;0.50;;;21.00;66.70;;;;;;5052009;28;20052;-69
2022/09/16 00:15:25;;;;;;;3.15;0.55;;;21.00;66.70;;;;;;5051124;28;20084;-69
2022/09/16 00:17:51;;;;;;;1.63;0.63;;;21.00;66.70;;;;;;5033463;28;20041;-70
2022/09/16 00:20:17;;;;;;;1.15;0.47;;;21.00;66.60;;;;;;5051676;28;20578;-70
2022/09/16 00:22:42;;;;;;;1.90;0.40;;;21.00;66.60;;;;;;5052096;28;20488;-69
2022/09/16 00:25:08;;;;;;;2.78;0.40;;;21.00;66.60;;;;;;5050962;28;20048;-70
2022/09/16 00:27:34;;;;;;;1.33;0.40;;;21.00;66.60;;;;;;5033991;28;20135;-70
2022/09/16 00:29:59;;;;;;;2.20;0.40;;;21.00;66.70;;;;;;5050948;28;20078;-70
2022/09/16 00:32:25;;;;;;;1.58;0.47;;;21.00;66.60;;;;;;5033222;28;20126;-70
2022/09/16 00:34:51;;;;;;;1.92;0.47;;;21.00;66.60;;;;;;5051701;28;20485;-70
2022/09/16 00:37:16;;;;;;;1.63;0.30;;;21.00;66.60;;;;;;5051544;28;20132;-70
2022/09/16 00:39:42;;;;;;;1.60;0.45;;;21.00;66.60;;;;;;5050932;28;20037;-70
2022/09/16 00:42:10;;;;;;;1.75;0.40;;;21.00;66.60;;;;;;5051681;28;20091;-70
2022/09/16 00:45:01;;;;;;;2.22;0.50;;;21.00;66.60;;;;;;5017933;28;20123;-70
2022/09/16 00:47:50;;;;;;;1.88;0.45;;;21.00;66.60;;;;;;5051529;28;20055;-68
2022/09/16 00:50:26;;;;;;;1.65;0.30;;;21.00;66.60;;;;;;5051589;28;20094;-70
2022/09/16 00:52:51;;;;;;;1.77;0.43;;;20.90;66.60;;;;;;5050633;28;20041;-69
2022/09/16 00:55:23;;;;;;;2.65;0.47;;;20.90;66.60;;;;;;5033765;28;20388;-68
2022/09/16 00:57:48;;;;;;;2.20;0.50;;;20.90;66.50;;;;;;5017893;28;20095;-68
2022/09/16 01:00:14;;;;;;;1.42;0.40;;;20.90;66.50;;;;;;5050099;28;20048;-69
2022/09/16 01:02:43;;;;;;;0.98;0.40;;;20.90;66.50;;;;;;5051738;28;20111;-69
2022/09/16 01:05:16;;;;;;;2.00;0.50;;;20.90;66.50;;;;;;5051131;28;20527;-69
2022/09/16 01:07:48;;;;;;;1.00;0.40;;;20.90;66.40;;;;;;5016953;28;20040;-69
2022/09/16 01:10:16;;;;;;;2.10;0.57;;;20.90;66.50;;;;;;5051089;28;20055;-69
2022/09/16 01:12:43;;;;;;;1.95;0.43;;;20.90;66.50;;;;;;5017384;28;20042;-69
2022/09/16 01:15:09;;;;;;;2.78;0.50;;;20.90;66.60;;;;;;5016539;28;20123;-69
2022/09/16 01:17:53;;;;;;;2.15;0.57;;;20.90;66.50;;;;;;5054253;28;20049;-69
2022/09/16 01:20:40;;;;;;;1.30;0.40;;;20.90;66.50;;;;;;5054192;28;20049;-69
2022/09/16 01:23:18;;;;;;;2.38;0.73;;;20.90;66.50;;;;;;5055106;28;20040;-69
2022/09/16 01:26:02;;;;;;;1.67;0.50;;;20.90;66.40;;;;;;5036965;28;20481;-69
2022/09/16 01:28:45;;;;;;;1.30;0.30;;;20.90;66.50;;;;;;5053615;28;20545;-69
2022/09/16 01:31:14;;;;;;;1.55;0.40;;;20.90;66.40;;;;;;5054124;28;20057;-69
2022/09/16 01:34:12;;;;;;;1.83;0.40;;;20.90;66.40;;;;;;5054879;28;20041;-70
2022/09/16 01:36:40;;;;;;;;;;;20.90;66.40;;;;;;5037257;28;20131;-69
2022/09/16 01:39:12;;;;;;;1.23;0.30;;;20.80;66.40;;;;;;5054444;28;19921;-70
2022/09/16 01:41:44;;;;;;;1.73;0.40;;;20.80;66.40;;;;;;5053759;28;20118;-69
2022/09/16 01:44:26;;;;;;;1.05;0.32;;;20.80;66.40;;;;;;5036650;28;20040;-69
2022/09/16 01:47:06;;;;;;;1.10;0.40;;;20.80;66.40;;;;;;5037732;28;20049;-69
2022/09/16 01:49:46;;;;;;;0.63;0.40;;;20.80;66.40;;;;;;5020647;28;20037;-68
2022/09/16 01:52:41;;;;;;;1.20;0.40;;;20.80;66.40;;;;;;5020444;28;20084;-68
2022/09/16 01:55:40;;;;;;;3.88;0.40;;;20.80;66.40;;;;;;5036752;28;20076;-68
2022/09/16 01:58:10;;;;;;;3.28;0.45;;;20.80;66.40;;;;;;5054025;28;20033;-69
2022/09/16 02:00:35;;;;;;;1.48;0.40;;;20.80;66.40;;;;;;5036127;28;20041;-69
2022/09/16 02:03:12;;;;;;;1.13;0.30;;;20.80;66.40;;;;;;5001576;28;20085;-69
2022/09/16 02:05:47;;;;;;;1.73;0.30;;;20.80;66.40;;;;;;5035794;28;20124;-69
2022/09/16 02:08:25;;;;;;;1.60;0.30;;;20.80;66.40;;;;;;5020589;28;20052;-69
2022/09/16 02:10:56;;;;;;;1.30;0.38;;;20.80;66.30;;;;;;5020817;28;20045;-70
2022/09/16 02:13:37;;;;;;;2.88;0.50;;;20.80;66.40;;;;;;5053864;28;20045;-69
2022/09/16 02:16:12;;;;;;;0.98;0.40;;;20.80;66.40;;;;;;5020327;28;20108;-69
2022/09/16 02:18:41;;;;;;;1.23;0.30;;;20.80;66.40;;;;;;5036343;28;20451;-69
2022/09/16 02:21:09;;;;;;;2.75;0.40;;;20.80;66.40;;;;;;5019449;28;20484;-69
2022/09/16 02:23:45;;;;;;;2.63;0.38;;;20.80;66.40;;;;;;5035787;28;20053;-69
2022/09/16 02:26:16;;;;;;;1.52;0.30;;;20.80;66.40;;;;;;5036510;28;20056;-69
2022/09/16 02:28:42;;;;;;;0.70;0.35;;;20.80;66.40;;;;;;5052999;28;20451;-69
2022/09/16 02:31:09;;;;;;;3.58;0.50;;;20.80;66.40;;;;;;5018007;28;20068;-69
2022/09/16 02:33:40;;;;;;;1.50;0.40;;;20.70;66.30;;;;;;5053368;28;20447;-69
2022/09/16 02:36:06;;;;;;;2.13;0.43;;;20.70;66.30;;;;;;5036007;28;20052;-69
2022/09/16 02:38:40;;;;;;;1.25;0.38;;;20.70;66.40;;;;;;5052865;28;20037;-69
2022/09/16 02:41:05;;;;;;;1.13;0.28;;;20.80;66.40;;;;;;5019583;28;20072;-69
2022/09/16 02:43:31;;;;;;;1.00;0.30;;;20.70;66.30;;;;;;5053018;28;20083;-69
2022/09/16 02:46:08;;;;;;;1.65;0.40;;;20.70;66.30;;;;;;5034814;28;20473;-69
2022/09/16 02:48:41;;;;;;;1.20;0.40;;;20.70;66.30;;;;;;5053194;28;20088;-69
2022/09/16 02:51:20;;;;;;;1.60;0.40;;;20.70;66.30;;;;;;5018725;28;20052;-69
2022/09/16 02:54:10;;;;;;;2.38;0.38;;;20.70;67.00;;;;;;5017933;28;20041;-69
2022/09/16 02:56:42;;;;;;;1.75;0.30;;;20.70;66.30;;;;;;5002261;28;20049;-69
2022/09/16 02:59:09;;;;;;;1.42;0.30;;;20.70;66.40;;;;;;5033933;28;20095;-70
2022/09/16 03:01:40;;;;;;;2.50;0.30;;;20.70;66.40;;;;;;5052717;28;20447;-70
2022/09/16 03:04:06;;;;;;;0.98;0.35;;;20.70;66.30;;;;;;5035724;28;20037;-70
2022/09/16 03:06:35;;;;;;;1.65;0.30;;;20.70;66.40;;;;;;5052568;28;20033;-69
2022/09/16 03:09:02;;;;;;;2.22;0.43;;;20.70;66.40;;;;;;5052901;28;20516;-70
2022/09/16 03:11:30;;;;;;;2.13;0.32;;;20.70;66.40;;;;;;5018501;28;20045;-68
2022/09/16 03:14:28;;;;;;;0.88;0.30;;;20.70;66.40;;;;;;5033967;28;20405;-70
2022/09/16 03:16:59;;;;;;;0.90;0.30;;;20.70;66.40;;;;;;5037820;28;20064;-70
2022/09/16 03:19:37;;;;;;;1.52;0.52;;;20.70;66.40;;;;;;5051443;28;20555;-70
2022/09/16 03:22:32;;;;;;;0.55;0.30;;;20.70;66.40;;;;;;5030252;28;20041;-69
2022/09/16 03:25:02;;;;;;;0.88;0.32;;;20.70;66.40;;;;;;5037427;28;20056;-70
2022/09/16 03:27:43;;;;;;;1.73;0.30;;;20.60;66.30;;;;;;5033674;28;20452;-69
2022/09/16 03:30:09;;;;;;;2.45;0.40;;;20.70;66.40;;;;;;5033701;28;20087;-69
2022/09/16 03:32:41;;;;;;;1.40;0.30;;;20.60;66.30;;;;;;5034768;28;20511;-70
2022/09/16 03:35:10;;;;;;;1.33;0.38;;;20.60;66.30;;;;;;5051329;28;20397;-70
2022/09/16 03:37:36;;;;;;;0.82;0.20;;;20.60;66.30;;;;;;5018514;28;20043;-70
2022/09/16 03:40:05;;;;;;;1.48;0.38;;;20.60;66.30;;;;;;5018365;28;20128;-70
2022/09/16 03:42:30;;;;;;;2.50;0.65;;;20.70;66.40;;;;;;5051426;28;20128;-70
2022/09/16 03:44:56;;;;;;;1.15;0.30;;;20.60;66.30;;;;;;5052600;28;20131;-70
2022/09/16 03:47:21;;;;;;;0.85;0.28;;;20.60;66.30;;;;;;5071906;28;20076;-70
2022/09/16 03:49:47;;;;;;;0.95;0.30;;;20.60;66.30;;;;;;5036845;28;20044;-70
2022/09/16 03:52:17;;;;;;;1.25;0.30;;;20.60;66.30;;;;;;5072138;28;20120;-69
2022/09/16 03:54:43;;;;;;;0.93;0.30;;;20.60;66.30;;;;;;5071422;28;20139;-70
2022/09/16 03:57:11;;;;;;;0.88;0.30;;;20.60;66.30;;;;;;5072095;28;20540;-70
2022/09/16 03:59:37;;;;;;;;;;;20.60;66.30;;;;;;5072299;28;20105;-70
2022/09/16 04:02:02;;;;;;;1.17;0.28;;;20.60;66.90;;;;;;5064444;28;20725;-69
2022/09/16 04:04:28;;;;;;;2.10;0.40;;;20.60;66.40;;;;;;5067467;28;20047;-70
2022/09/16 04:06:53;;;;;;;1.88;0.30;;;20.60;66.40;;;;;;5071063;28;20051;-69
2022/09/16 04:09:19;;;;;;;1.75;0.40;;;20.60;66.30;;;;;;5070922;28;20037;-70
2022/09/16 04:11:44;;;;;;;0.77;0.30;;;20.60;66.30;;;;;;5072082;28;20118;-70
2022/09/16 04:14:10;;;;;;;1.50;0.40;;;20.60;66.30;;;;;;5071423;28;20047;-69
2022/09/16 04:16:36;;;;;;;1.50;0.38;;;20.60;66.30;;;;;;5071120;28;20048;-69
2022/09/16 04:19:01;;;;;;;0.93;0.38;;;20.50;66.30;;;;;;5072086;28;20404;-69
2022/09/16 04:21:28;;;;;;;1.98;0.50;;;20.60;66.30;;;;;;5071917;28;20491;-69
2022/09/16 04:23:53;;;;;;;1.77;0.30;;;20.50;66.30;;;;;;5070824;28;20518;-69
2022/09/16 04:26:22;;;;;;;1.15;0.32;;;20.50;66.30;;;;;;5070798;28;20052;-69
2022/09/16 04:28:53;;;;;;;0.65;0.20;;;20.50;66.30;;;;;;5071714;28;20094;-69
2022/09/16 04:31:19;;;;;;;0.77;0.20;;;20.50;66.30;;;;;;5052347;28;20053;-69
2022/09/16 04:33:44;;;;;;;1.48;0.40;;;20.60;66.40;;;;;;5071492;28;20052;-69
2022/09/16 04:36:11;;;;;;;1.80;0.30;;;20.50;66.30;;;;;;5071796;28;20079;-69
2022/09/16 04:38:37;;;;;;;1.77;0.40;;;20.50;66.30;;;;;;5071322;28;20040;-69
2022/09/16 04:41:06;;;;;;;1.95;0.30;;;20.50;66.30;;;;;;5053864;28;20094;-70
2022/09/16 04:43:31;;;;;;;;;;;20.50;66.30;;;;;;5072063;28;20044;-69
2022/09/16 04:45:57;;;;;;;1.48;0.35;;;20.50;66.20;;;;;;5070343;28;19920;-69
2022/09/16 04:48:22;;;;;;;1.30;0.30;;;20.50;66.30;;;;;;5053231;28;20041;-70
2022/09/16 04:50:48;;;;;;;1.83;0.32;;;20.50;66.30;;;;;;5073536;28;20037;-69
2022/09/16 04:53:13;;;;;;;1.38;0.30;;;20.50;66.30;;;;;;5074678;28;20040;-69
2022/09/16 04:55:43;;;;;;;2.65;0.30;;;20.50;66.30;;;;;;5075631;28;20040;-69
2022/09/16 04:58:08;;;;;;;1.92;0.63;;;20.50;66.30;;;;;;5074297;28;20055;-69
2022/09/16 05:00:37;;;;;;;0.85;0.30;;;20.50;66.30;;;;;;5056867;28;20037;-69
2022/09/16 05:03:02;;;;;;;;;;;20.50;66.30;;;;;;5075885;28;20045;-69
2022/09/16 05:05:28;;;;;;;0.98;0.35;;;20.50;66.30;;;;;;5073948;28;19959;-69
2022/09/16 05:07:53;;;;;;;1.55;0.32;;;20.40;66.30;;;;;;5075400;28;20121;-69
2022/09/16 05:10:19;;;;;;;1.33;0.30;;;20.40;66.30;;;;;;5075058;28;20076;-69
2022/09/16 05:12:49;;;;;;;1.15;0.22;;;20.50;66.40;;;;;;5056508;28;20045;-69
2022/09/16 05:15:14;;;;;;;0.88;0.20;;;20.40;66.30;;;;;;5055961;28;20135;-69
2022/09/16 05:17:49;;;;;;;0.32;0.22;;;20.50;66.40;;;;;;5075255;28;20119;-69
2022/09/16 05:20:15;;;;;;;2.50;0.47;;;20.40;66.30;;;;;;5056483;28;20420;-69
2022/09/16 05:22:40;;;;;;;2.63;0.60;;;20.40;66.30;;;;;;5074827;28;20041;-69
2022/09/16 05:25:06;;;;;;;0.70;0.30;;;20.40;66.30;;;;;;5075009;28;20053;-69
2022/09/16 05:27:32;;;;;;;1.25;0.20;;;20.40;66.30;;;;;;5073472;28;20096;-69
2022/09/16 05:29:58;;;;;;;1.33;0.30;;;20.40;66.30;;;;;;5073968;28;20055;-68
2022/09/16 05:32:24;;;;;;;1.20;0.30;;;20.40;66.30;;;;;;5074507;28;20139;-69
2022/09/16 05:34:50;;;;;;;1.02;0.30;;;20.40;66.30;;;;;;5074218;28;20170;-69
2022/09/16 05:37:18;;;;;;;1.10;0.35;;;20.40;66.40;;;;;;5074309;28;20048;-69
2022/09/16 05:39:44;;;;;;;1.33;0.35;;;20.40;66.30;;;;;;5074755;28;20041;-69
2022/09/16 05:42:09;;;;;;;1.35;0.40;;;20.40;66.40;;;;;;5073570;28;20071;-69
2022/09/16 05:44:35;;;;;;;1.77;0.30;;;20.40;66.30;;;;;;5074098;28;20044;-69
2022/09/16 05:47:01;;;;;;;0.65;0.30;;;20.40;66.30;;;;;;5074806;28;20190;-68
2022/09/16 05:49:30;;;;;;;1.48;0.30;;;20.40;66.30;;;;;;5073461;28;20037;-69
2022/09/16 05:51:55;;;;;;;0.73;0.20;;;20.40;66.40;;;;;;5074265;28;20040;-69
2022/09/16 05:54:23;;;;;;;1.75;0.38;;;20.40;66.40;;;;;;5073268;28;20473;-69
2022/09/16 05:56:49;;;;;;;0.68;0.20;;;20.40;66.40;;;;;;5074530;28;20476;-69
2022/09/16 05:59:15;;;;;;;1.83;0.40;;;20.40;66.30;;;;;;5073542;28;20052;-69
2022/09/16 06:01:41;;;;;;;1.70;0.40;;;20.40;66.40;;;;;;5073480;28;20490;-69
2022/09/16 06:04:09;;;;;;;1.52;0.30;;;20.40;66.30;;;;;;5074062;28;20048;-69
2022/09/16 06:06:36;;;;;;;2.00;0.30;;;20.40;66.40;;;;;;5074368;28;20037;-69
2022/09/16 06:09:17;;;;;;;0.55;0.40;;;20.40;66.40;;;;;;5072970;28;20158;-67
2022/09/16 06:11:47;;;;;;;1.42;0.40;;;20.40;66.50;;;;;;5061748;28;20404;-70
2022/09/16 06:14:13;;;;;;;0.80;0.30;;;20.40;66.50;;;;;;5053250;28;20495;-70
2022/09/16 06:16:39;;;;;;;1.50;0.30;;;20.40;66.50;;;;;;5053025;28;20041;-70
2022/09/16 06:19:06;;;;;;;4.90;0.40;;;20.40;66.50;;;;;;5054308;28;20132;-71
2022/09/16 06:21:31;;;;;;;2.28;0.50;;;20.40;66.50;;;;;;5054010;28;20036;-71
2022/09/16 06:23:57;;;;;;;2.55;0.40;;;20.40;66.50;;;;;;5054861;28;20049;-69
2022/09/16 06:26:24;;;;;;;0.90;0.30;;;20.40;66.60;;;;;;5044080;28;20056;-70
2022/09/16 06:28:50;;;;;;;3.33;0.40;;;20.40;66.60;;;;;;5053819;28;20041;-70
2022/09/16 06:31:20;;;;;;;2.25;0.50;;;20.40;66.80;;;;;;5052218;28;20145;-72
2022/09/16 06:33:46;;;;;;;2.08;0.45;;;20.40;66.80;;;;;;5053887;28;20053;-72
2022/09/16 06:36:15;;;;;;;3.97;0.50;;;20.40;67.00;;;;;;5053050;28;20029;-71
2022/09/16 06:38:44;;;;;;;1.88;0.40;;;20.40;67.20;;;;;;5048005;28;20075;-69
2022/09/16 06:41:10;;;;;;;1.92;0.38;;;20.40;67.10;;;;;;5055281;28;20477;-69
2022/09/16 06:43:38;;;;;;;4.10;0.40;;;20.50;67.20;;;;;;5072581;28;20055;-70
2022/09/16 06:46:12;;;;;;;2.35;0.40;;;20.50;67.20;;;;;;5046807;28;20036;-70
2022/09/16 06:48:38;;;;;;;3.20;0.50;;;20.50;67.10;;;;;;5044673;28;20500;-68
2022/09/16 06:51:05;;;;;;;3.33;0.43;;;20.50;67.20;;;;;;5061524;28;20041;-68
2022/09/16 06:53:34;;;;;;;2.65;0.60;;;20.50;67.20;;;;;;5063967;28;20055;-69
2022/09/16 06:56:11;;;;;;;1.27;0.30;;;20.50;67.20;;;;;;5062808;28;20045;-70
2022/09/16 06:58:38;;;;;;;2.83;0.50;;;20.50;67.20;;;;;;5055225;28;20048;-70
2022/09/16 07:01:11;;;;;;;1.83;0.40;;;20.50;67.20;;;;;;5052811;28;20094;-71
2022/09/16 07:03:38;;;;;;;2.28;0.40;;;20.50;67.20;;;;;;5035230;28;20048;-69
2022/09/16 07:06:04;;;;;;;3.33;0.60;;;20.50;67.20;;;;;;5034723;28;20041;-73
2022/09/16 07:08:33;;;;;;;1.83;0.40;;;20.50;67.20;;;;;;5052654;28;20078;-73
2022/09/16 07:11:03;;;;;;;2.42;0.30;;;20.50;67.20;;;;;;5053275;28;20492;-73
2022/09/16 07:13:29;;;;;;;3.08;0.40;;;20.50;67.30;;;;;;5070731;28;20044;-73
2022/09/16 07:15:59;;;;;;;0.80;0.25;;;20.50;67.20;;;;;;5054380;28;20055;-72
2022/09/16 07:18:24;;;;;;;1.27;0.40;;;20.60;67.40;;;;;;5072716;28;20125;-72
2022/09/16 07:20:50;;;;;;;1.70;0.40;;;20.60;67.40;;;;;;5072244;28;20079;-74
2022/09/16 07:23:15;;;;;;;1.52;0.60;;;20.60;67.40;;;;;;5072347;28;20174;-74
2022/09/16 07:25:44;;;;;;;2.47;0.50;;;20.60;67.40;;;;;;5070802;28;20078;-71
2022/09/16 07:28:09;;;;;;;2.50;0.50;;;20.60;67.40;;;;;;5056007;28;20037;-71
2022/09/16 07:30:35;;;;;;;3.45;0.82;;;20.60;67.40;;;;;;5060807;28;20078;-71
2022/09/16 07:33:00;;;;;;;2.65;0.98;;;20.70;67.40;;;;;;5052235;28;20107;-72
2022/09/16 07:35:26;;;;;;;3.05;0.57;;;20.70;67.40;;;;;;5051812;28;20353;-71
2022/09/16 07:37:51;;;;;;;3.33;0.50;;;20.70;67.30;;;;;;5071116;28;20051;-69
2022/09/16 07:40:17;;;;;;;2.20;0.30;;;20.70;67.30;;;;;;5067779;28;20434;-72
2022/09/16 07:42:45;;;;;;;2.80;0.40;;;20.70;67.30;;;;;;5055990;28;20053;-73
2022/09/16 07:45:11;;;;;;;;;;;20.70;67.20;;;;;;5033676;28;20059;-71
2022/09/16 07:47:36;;;;;;;3.40;0.50;;;20.70;67.10;;;;;;5051445;28;19916;-73
2022/09/16 07:50:05;;;;;;;1.88;0.50;;;20.70;67.20;;;;;;5052508;28;20441;-72
2022/09/16 07:52:31;;;;;;;1.42;0.30;;;20.70;67.20;;;;;;5052275;28;20095;-72
2022/09/16 07:54:57;;;;;;;5.03;0.43;;;20.70;67.20;;;;;;5051283;28;20053;-73
2022/09/16 07:57:25;;;;;;;1.48;0.40;;;20.70;67.10;;;;;;5052165;28;20123;-73
2022/09/16 07:59:51;;;;;;;3.40;0.45;;;20.70;67.00;;;;;;5051509;28;20091;-73
2022/09/16 08:02:16;;;;;;;2.28;0.38;;;20.70;67.00;;;;;;5050969;28;20168;-74
2022/09/16 08:04:42;;;;;;;2.60;0.50;;;20.70;67.00;;;;;;5052377;28;20561;-73
2022/09/16 08:07:07;;;;;;;1.85;0.30;;;20.70;67.00;;;;;;5052032;28;20115;-73
2022/09/16 08:09:33;;;;;;;2.63;0.40;;;20.70;67.00;;;;;;5051178;28;20041;-71
2022/09/16 08:12:00;;;;;;;3.78;0.60;;;20.70;66.80;;;;;;5033748;28;20132;-73
2022/09/16 08:14:26;;;;;;;2.10;0.40;;;20.80;66.90;;;;;;5027230;28;20072;-72
2022/09/16 08:16:51;;;;;;;3.80;0.50;;;20.80;66.90;;;;;;5051222;28;20033;-72
2022/09/16 08:19:18;;;;;;;5.57;0.50;;;20.80;66.90;;;;;;5033824;28;20048;-72
2022/09/16 08:21:44;;;;;;;2.97;0.68;;;20.80;66.90;;;;;;5052013;28;20043;-73
2022/09/16 08:24:09;;;;;;;3.22;0.50;;;20.90;66.90;;;;;;5051070;28;20393;-73
2022/09/16 08:26:35;;;;;;;3.35;0.60;;;20.90;66.90;;;;;;5055295;28;20130;-72
2022/09/16 08:29:00;;;;;;;4.18;0.43;;;20.90;66.90;;;;;;5055232;28;20044;-72
2022/09/16 08:31:26;;;;;;;4.70;0.55;;;20.90;66.90;;;;;;5037219;28;20064;-73
2022/09/16 08:33:52;;;;;;;1.52;0.40;;;21.00;67.00;;;;;;5037869;28;20056;-72
2022/09/16 08:36:22;;;;;;;2.03;0.38;;;21.00;67.00;;;;;;5055093;28;20132;-73
2022/09/16 08:38:49;;;;;;;1.35;0.40;;;21.00;67.00;;;;;;5055792;28;20155;-73
2022/09/16 08:41:45;;;;;;;3.55;0.50;;;21.00;66.90;;;;;;5055668;28;20064;-73
2022/09/16 08:44:15;;;;;;;1.55;0.57;;;21.00;66.90;;;;;;5054604;28;20049;-73
2022/09/16 08:46:53;;;;;;;3.10;0.50;;;21.10;66.90;;;;;;5055754;28;20048;-72
2022/09/16 08:49:43;;;;;;;2.35;0.40;;;21.10;66.70;;;;;;5037997;28;20045;-73
2022/09/16 08:52:23;;;;;;;3.35;0.50;;;21.10;66.70;;;;;;5054723;28;20037;-71
2022/09/16 08:54:54;;;;;;;2.60;0.43;;;21.10;66.60;;;;;;5039732;28;20119;-73
2022/09/16 08:57:21;;;;;;;2.70;0.40;;;21.10;66.60;;;;;;5036362;28;20431;-72
2022/09/16 09:00:11;;;;;;;2.47;0.60;;;21.10;66.60;;;;;;5054866;28;20128;-73
2022/09/16 09:02:41;;;;;;;2.90;0.55;;;21.20;66.60;;;;;;5038266;28;20045;-72
2022/09/16 09:05:15;;;;;;;5.00;0.40;;;21.20;66.60;;;;;;5036651;28;20041;-73
2022/09/16 09:07:52;;;;;;;1.65;0.40;;;21.20;66.50;;;;;;5037704;28;20519;-73
2022/09/16 09:10:45;;;;;;;5.93;0.77;;;21.20;66.50;;;;;;5037150;28;20099;-73
2022/09/16 09:13:35;;;;;;;5.05;0.60;;;21.20;66.40;;;;;;5036576;28;20501;-75
2022/09/16 09:16:10;;;;;;;2.03;0.50;;;21.20;66.40;;;;;;5055012;28;20049;-74
2022/09/16 09:18:56;;;;;;;2.55;0.40;;;21.20;66.30;;;;;;5036798;28;20041;-74
2022/09/16 09:21:40;;;;;;;2.03;0.47;;;21.20;66.30;;;;;;5038447;28;20080;-72
2022/09/16 09:24:15;;;;;;;3.33;0.52;;;21.20;65.90;;;;;;5054175;28;20480;-73
2022/09/16 09:26:45;;;;;;;5.20;0.70;;;21.20;65.80;;;;;;5054093;28;20098;-72
2022/09/16 09:29:22;;;;;;;4.80;0.70;;;21.20;65.60;;;;;;5036734;28;20040;-73
2022/09/16 09:32:09;;;;;;;3.13;0.57;;;21.20;65.30;;;;;;5037066;28;20053;-74
2022/09/16 09:34:48;;;;;;;4.93;0.90;;;21.20;65.10;;;;;;5038521;28;20115;-70
2022/09/16 09:37:49;;;;;;;7.22;0.50;;;21.10;65.00;;;;;;5054751;28;20044;-73
2022/09/16 09:40:22;;;;;;;5.90;1.08;;;21.10;64.80;;;;;;4973128;28;20047;-74
2022/09/16 09:42:52;;;;;;;3.53;0.70;;;21.20;64.80;;;;;;5025003;28;20057;-69
2022/09/16 09:45:17;;;;;;;7.90;0.88;;;21.20;64.80;;;;;;5054305;28;20045;-69
2022/09/16 09:47:49;;;;;;;4.60;0.93;;;21.20;64.70;;;;;;5054241;28;20045;-69
2022/09/16 09:50:29;;;;;;;8.73;1.20;;;21.20;65.20;;;;;;5037623;28;20203;-69
2022/09/16 09:53:11;;;;;;;6.20;1.40;;;21.20;64.50;;;;;;5037264;28;20066;-69
2022/09/16 09:55:37;;;;;;;5.20;1.23;;;21.20;64.50;;;;;;5036776;28;20080;-69
2022/09/16 09:58:30;;;;;;;5.45;1.20;;;21.20;64.50;;;;;;5054495;28;20127;-71
2022/09/16 10:00:59;;;;;;;6.20;1.08;;;21.20;64.40;;;;;;5019496;28;20053;-69
2022/09/16 10:03:24;;;;;;;;;;;21.30;64.60;;;;;;5054999;28;20049;-69
2022/09/16 10:05:53;;;;;;;4.82;0.80;;;21.20;64.70;;;;;;5054741;28;19920;-69
2022/09/16 10:08:27;;;;;;;4.18;0.93;;;21.30;64.70;;;;;;5053681;28;20044;-71
2022/09/16 10:11:01;;;;;;;3.58;1.05;;;21.30;64.60;;;;;;5037431;28;20504;-70
2022/09/16 10:13:28;;;;;;;4.47;1.02;;;21.30;64.60;;;;;;5054227;28;20044;-70
2022/09/16 10:16:09;;;;;;;3.33;1.20;;;21.30;64.60;;;;;;5042860;28;20037;-71
2022/09/16 10:18:34;;;;;;;5.05;1.00;;;21.30;64.50;;;;;;5042724;28;20083;-71
2022/09/16 10:21:10;;;;;;;5.82;0.60;;;21.30;64.50;;;;;;5036617;28;20431;-72
2022/09/16 10:23:37;;;;;;;5.07;0.60;;;21.30;64.30;;;;;;5035680;28;20046;-72
2022/09/16 10:26:26;;;;;;;5.00;1.10;;;21.30;64.00;;;;;;5036363;28;20049;-72
2022/09/16 10:29:05;;;;;;;4.35;0.85;;;21.30;63.80;;;;;;5053576;28;20575;-72
2022/09/16 10:31:35;;;;;;;5.07;1.00;;;21.30;63.70;;;;;;5035848;28;20531;-72
2022/09/16 10:34:02;;;;;;;4.53;1.00;;;21.30;63.60;;;;;;5036171;28;20507;-72
2022/09/16 10:36:31;;;;;;;4.15;0.70;;;21.40;63.50;;;;;;5029859;28;20056;-72
2022/09/16 10:38:57;;;;;;;6.57;0.60;;;21.30;63.40;;;;;;5020331;28;20044;-72
2022/09/16 10:41:24;;;;;;;3.88;0.60;;;21.40;63.30;;;;;;5019550;28;20045;-72
2022/09/16 10:43:55;;;;;;;3.85;0.50;;;21.40;63.20;;;;;;5035286;28;20045;-72
2022/09/16 10:46:21;;;;;;;4.55;0.60;;;21.40;63.00;;;;;;5053491;28;20041;-72
2022/09/16 10:48:48;;;;;;;4.65;0.75;;;21.30;62.90;;;;;;5053069;28;20543;-72
2022/09/16 10:51:27;;;;;;;3.40;0.50;;;21.40;62.80;;;;;;5034999;28;20500;-72
2022/09/16 10:53:57;;;;;;;8.23;1.15;;;21.30;62.50;;;;;;5053736;28;20045;-71
2022/09/16 10:56:28;;;;;;;5.20;0.65;;;21.30;62.50;;;;;;5053521;28;20045;-72
2022/09/16 10:59:14;;;;;;;5.88;0.95;;;21.30;62.40;;;;;;5052766;28;20045;-71
2022/09/16 11:01:48;;;;;;;3.35;0.63;;;21.30;62.20;;;;;;5053746;28;20044;-72
2022/09/16 11:04:28;;;;;;;4.10;0.77;;;21.30;62.30;;;;;;5052569;28;20041;-71
2022/09/16 11:07:05;;;;;;;5.43;1.15;;;21.20;61.90;;;;;;5036650;28;20041;-71
2022/09/16 11:10:03;;;;;;;3.05;0.73;;;21.20;61.80;;;;;;5035621;28;20110;-71
2022/09/16 11:12:47;;;;;;;3.03;0.60;;;21.20;61.60;;;;;;5018050;28;20059;-70
2022/09/16 11:15:36;;;;;;;7.53;1.40;;;21.20;61.80;;;;;;5034582;28;20151;-70
2022/09/16 11:18:23;;;;;;;6.82;1.48;;;21.20;61.90;;;;;;5023873;28;20061;-71
2022/09/16 11:21:03;;;;;;;11.13;1.80;;;21.20;61.90;;;;;;5035446;28;20134;-71
2022/09/16 11:23:50;;;;;;;9.07;1.95;;;21.30;62.10;;;;;;5052646;28;20116;-69
2022/09/16 11:26:31;;;;;;;7.00;1.65;;;21.30;62.10;;;;;;5057477;28;20123;-70
2022/09/16 11:29:36;;;;;;;7.85;1.85;;;21.30;62.10;;;;;;5041972;28;21188;-69
2022/09/16 11:32:41;;;;;;;7.07;2.00;;;21.30;62.10;;;;;;5046272;28;20052;-70
2022/09/16 11:35:21;;;;;;;8.45;2.40;;;21.30;61.90;;;;;;5052150;28;20407;-70
2022/09/16 11:38:08;;;;;;;6.05;1.40;;;21.30;61.80;;;;;;5039193;28;20045;-71
2022/09/16 11:40:49;;;;;;;8.00;1.58;;;21.30;61.70;;;;;;5071875;28;20127;-70
2022/09/16 11:43:27;;;;;;;8.93;2.35;;;21.40;61.70;;;;;;5072352;28;20090;-71
2022/09/16 11:45:53;;;;;;;;;;;21.30;61.60;;;;;;5054376;28;20048;-70
2022/09/16 11:48:25;;;;;;;9.70;1.50;;;21.30;61.60;;;;;;5071067;28;20393;-72
2022/09/16 11:51:12;;;;;;;5.28;1.70;;;21.30;61.60;;;;;;5038223;28;20140;-70
2022/09/16 11:53:59;;;;;;;8.32;2.13;;;21.30;61.30;;;;;;5068990;28;20047;-72
2022/09/16 11:56:29;;;;;;;9.25;1.58;;;21.30;61.40;;;;;;5061650;28;20045;-70
2022/09/16 11:58:56;;;;;;;11.25;2.47;;;21.30;61.30;;;;;;5043002;28;20120;-76
2022/09/16 12:01:36;;;;;;;6.32;1.30;;;21.30;61.30;;;;;;5060311;28;20411;-73
2022/09/16 12:04:24;;;;;;;9.48;1.48;;;21.30;61.10;;;;;;5029027;28;20049;-72
2022/09/16 12:07:10;;;;;;;8.40;1.70;;;21.40;61.20;;;;;;5012882;28;20094;-73
2022/09/16 12:09:49;;;;;;;6.60;1.35;;;21.40;61.20;;;;;;5043537;28;20059;-75
2022/09/16 12:12:19;;;;;;;7.20;1.38;;;21.40;61.60;;;;;;5060630;28;20041;-74
2022/09/16 12:14:52;;;;;;;5.80;1.38;;;21.40;61.20;;;;;;5025921;28;20040;-73
2022/09/16 12:17:20;;;;;;;7.35;1.20;;;21.40;61.10;;;;;;5043685;28;20052;-74
2022/09/16 12:20:02;;;;;;;5.20;1.17;;;21.40;61.10;;;;;;5028747;28;20069;-73
2022/09/16 12:22:41;;;;;;;11.07;1.88;;;21.40;61.00;;;;;;5028451;28;20086;-73
2022/09/16 12:25:11;;;;;;;8.32;1.85;;;21.40;61.00;;;;;;5044443;28;20047;-73
2022/09/16 12:27:48;;;;;;;6.90;1.25;;;21.40;61.60;;;;;;5034946;28;20124;-73
2022/09/16 12:30:18;;;;;;;9.15;1.52;;;21.40;61.10;;;;;;5033993;28;20056;-73
2022/09/16 12:33:11;;;;;;;7.20;1.40;;;21.40;61.10;;;;;;5051543;28;20045;-73
2022/09/16 12:35:38;;;;;;;7.50;1.20;;;21.40;61.20;;;;;;5051165;28;20049;-72
2022/09/16 12:38:04;;;;;;;8.57;1.03;;;21.40;61.30;;;;;;5024049;28;20072;-73
2022/09/16 12:40:52;;;;;;;8.43;1.65;;;21.40;61.20;;;;;;5025985;28;20373;-74
2022/09/16 12:43:25;;;;;;;7.35;1.02;;;21.40;61.20;;;;;;5043286;28;20484;-73
2022/09/16 12:46:12;;;;;;;3.67;0.90;;;21.50;61.30;;;;;;5043747;28;20397;-74
2022/09/16 12:49:04;;;;;;;3.17;0.80;;;21.50;61.20;;;;;;5040959;28;20131;-74
2022/09/16 12:51:59;;;;;;;3.97;0.90;;;21.50;61.30;;;;;;5045001;28;20048;-73
2022/09/16 12:54:55;;;;;;;6.80;1.10;;;21.50;61.30;;;;;;5060753;28;20099;-71
2022/09/16 12:57:29;;;;;;;5.38;1.40;;;21.40;61.20;;;;;;5059324;28;20405;-73
2022/09/16 13:00:10;;;;;;;5.97;1.17;;;21.40;61.20;;;;;;5041787;28;20049;-74
2022/09/16 13:03:03;;;;;;;4.50;1.17;;;21.40;61.30;;;;;;5042699;28;20272;-74
2022/09/16 13:05:36;;;;;;;6.15;1.20;;;21.40;61.10;;;;;;5009128;28;20049;-75
2022/09/16 13:08:14;;;;;;;4.70;0.98;;;21.50;61.10;;;;;;5026167;28;20477;-76
2022/09/16 13:10:43;;;;;;;6.93;1.27;;;21.50;60.90;;;;;;5043469;28;20823;-75
2022/09/16 13:13:17;;;;;;;6.75;1.30;;;21.50;60.80;;;;;;5063484;28;20041;-74